Time,TemperatureF,DewpointF,PressureIn,WindDirection,WindDirectionDegrees,WindSpeedMPH,WindSpeedGustMPH,Humidity,HourlyPrecipIn,Conditions,Clouds,dailyrainin,SoftwareType,DateUTC
2013-12-16 00:02:00,7.5,-10.8,30.08,NNE,22,1.8,2.3,42,0.00,,OVC,0.00,WeatherDisplay:10.37,2013-12-16 06:02:00,
2013-12-16 00:07:00,7.5,-10.8,30.08,NNE,22,1.2,2.3,42,0.00,,OVC,0.00,WeatherDisplay:10.37,2013-12-16 06:07:00,
2013-12-16 00:12:00,7.5,-10.8,30.08,NNE,22,1.8,2.3,42,0.00,,OVC,0.00,WeatherDisplay:10.37,2013-12-16 06:12:00,
2013-12-16 00:17:00,7.5,-10.4,30.08,NNE,22,1.2,2.3,43,0.00,,OVC,0.00,WeatherDisplay:10.37,2013-12-16 06:17:00,
2013-12-16 00:22:00,7.7,-10.2,30.08,NNE,22,2.4,2.4,43,0.00,,OVC,0.00,WeatherDisplay:10.37,2013-12-16 06:22:00,
2013-12-16 00:27:00,7.5,-9.9,30.08,East,90,1.6,2.3,44,0.00,,OVC,0.00,WeatherDisplay:10.37,2013-12-16 06:27:00,
2013-12-16 00:32:00,7.5,-9.9,30.08,East,90,2.4,2.4,44,0.00,,OVC,0.00,WeatherDisplay:10.37,2013-12-16 06:32:00,
2013-12-16 00:37:00,7.5,-9.9,30.07,NNE,22,1.6,3.5,44,0.00,,OVC,0.00,WeatherDisplay:10.37,2013-12-16 06:37:00,
2013-12-16 00:42:00,7.7,-9.7,30.07,East,90,5.2,5.2,44,0.00,,OVC,0.00,WeatherDisplay:10.37,2013-12-16 06:42:00,
2013-12-16 00:47:00,7.7,-9.7,30.08,NNE,22,3.3,3.5,44,0.00,,OVC,0.00,WeatherDisplay:10.37,2013-12-16 06:47:00,
2013-12-16 00:52:00,7.7,-9.7,30.08,NNE,22,1.8,2.3,44,0.00,,OVC,0.00,WeatherDisplay:10.37,2013-12-16 06:52:00,
2013-12-16 00:57:00,7.7,-9.7,30.08,NNE,22,2.4,2.4,44,0.00,,OVC,0.00,WeatherDisplay:10.37,2013-12-16 06:57:00,
2013-12-16 01:02:00,7.7,-9.7,30.07,East,90,5.9,5.9,44,0.00,,OVC,0.00,WeatherDisplay:10.37,2013-12-16 07:02:00,
2013-12-16 01:07:00,7.9,-9.6,30.07,NNE,22,2.4,5.8,44,0.00,,OVC,0.00,WeatherDisplay:10.37,2013-12-16 07:07:00,
2013-12-16 01:12:00,7.9,-9.6,30.07,East,90,6.2,6.2,44,0.00,,OVC,0.00,WeatherDisplay:10.37,2013-12-16 07:12:00,
2013-12-16 01:17:00,7.9,-9.1,30.07,NNE,22,4.5,4.6,45,0.00,,OVC,0.00,WeatherDisplay:10.37,2013-12-16 07:17:00,
2013-12-16 01:22:00,7.9,-9.1,30.08,NNE,22,2.9,5.8,45,0.00,,OVC,0.00,WeatherDisplay:10.37,2013-12-16 07:22:00,
2013-12-16 01:27:00,7.9,-8.7,30.08,NNE,22,2.0,2.0,46,0.00,,OVC,0.00,WeatherDisplay:10.37,2013-12-16 07:27:00,
2013-12-16 01:32:00,7.9,-8.2,30.08,East,90,2.6,5.8,47,0.00,,OVC,0.00,WeatherDisplay:10.37,2013-12-16 07:32:00,
2013-12-16 01:37:00,7.9,-8.2,30.08,NNE,22,1.8,2.3,47,0.00,,OVC,0.00,WeatherDisplay:10.37,2013-12-16 07:37:00,
2013-12-16 01:42:00,7.9,-8.2,30.08,East,90,2.2,4.6,47,0.00,,OVC,0.00,WeatherDisplay:10.37,2013-12-16 07:42:00,
2013-12-16 01:47:00,7.9,-8.2,30.08,East,90,3.1,3.5,47,0.00,,OVC,0.00,WeatherDisplay:10.37,2013-12-16 07:47:00,
2013-12-16 01:52:00,7.9,-8.2,30.08,East,90,5.2,5.8,47,0.00,,OVC,0.00,WeatherDisplay:10.37,2013-12-16 07:52:00,
2013-12-16 01:57:00,8.1,-8.0,30.08,East,90,8.5,9.2,47,0.00,,OVC,0.00,WeatherDisplay:10.37,2013-12-16 07:57:00,
2013-12-16 02:02:00,8.1,-8.0,30.07,NNE,22,7.6,7.6,47,0.00,,OVC,0.00,WeatherDisplay:10.37,2013-12-16 08:02:00,
2013-12-16 02:07:00,8.1,-8.5,30.08,East,90,4.9,4.9,46,0.00,,OVC,0.00,WeatherDisplay:10.37,2013-12-16 08:07:00,
2013-12-16 02:12:00,8.1,-8.5,30.07,East,90,7.8,7.8,46,0.00,,OVC,0.00,WeatherDisplay:10.37,2013-12-16 08:12:00,
2013-12-16 02:17:00,8.1,-8.5,30.08,East,90,4.5,5.8,46,0.00,,OVC,0.00,WeatherDisplay:10.37,2013-12-16 08:17:00,
2013-12-16 02:22:00,8.2,-8.3,30.08,East,90,6.2,6.2,46,0.00,,OVC,0.00,WeatherDisplay:10.37,2013-12-16 08:22:00,
2013-12-16 02:27:00,8.2,-8.8,30.07,East,90,6.0,6.9,45,0.00,,OVC,0.00,WeatherDisplay:10.37,2013-12-16 08:27:00,
2013-12-16 02:32:00,8.2,-8.8,30.08,NNE,22,4.7,5.8,45,0.00,,OVC,0.00,WeatherDisplay:10.37,2013-12-16 08:32:00,
2013-12-16 02:37:00,8.2,-8.8,30.08,East,90,6.2,6.2,45,0.00,,OVC,0.00,WeatherDisplay:10.37,2013-12-16 08:37:00,
2013-12-16 02:42:00,8.2,-8.8,30.08,East,90,7.6,7.6,45,0.00,,OVC,0.00,WeatherDisplay:10.37,2013-12-16 08:42:00,
2013-12-16 02:47:00,8.2,-8.8,30.08,East,90,3.3,6.9,45,0.00,,OVC,0.00,WeatherDisplay:10.37,2013-12-16 08:47:00,
2013-12-16 02:52:00,8.2,-8.8,30.07,East,90,6.2,6.2,45,0.00,,OVC,0.00,WeatherDisplay:10.37,2013-12-16 08:52:00,
2013-12-16 02:57:00,8.2,-8.8,30.07,East,90,4.0,4.6,45,0.00,,OVC,0.00,WeatherDisplay:10.37,2013-12-16 08:57:00,
2013-12-16 03:02:00,8.2,-8.8,30.08,East,90,5.2,5.8,45,0.00,,OVC,0.00,WeatherDisplay:10.37,2013-12-16 09:02:00,
2013-12-16 03:07:00,8.2,-8.3,30.08,East,90,5.9,5.9,46,0.00,,OVC,0.00,WeatherDisplay:10.37,2013-12-16 09:07:00,
2013-12-16 03:12:00,8.4,-8.6,30.08,East,90,4.9,5.8,45,0.00,,OVC,0.00,WeatherDisplay:10.37,2013-12-16 09:12:00,
2013-12-16 03:17:00,8.4,-8.6,30.08,East,90,4.9,4.9,45,0.00,,OVC,0.00,WeatherDisplay:10.37,2013-12-16 09:17:00,
2013-12-16 03:22:00,8.4,-8.2,30.08,East,90,4.9,4.9,46,0.00,,OVC,0.00,WeatherDisplay:10.37,2013-12-16 09:22:00,
2013-12-16 03:27:00,8.4,-8.2,30.08,East,90,5.2,5.2,46,0.00,,OVC,0.00,WeatherDisplay:10.37,2013-12-16 09:27:00,
2013-12-16 03:32:00,8.4,-8.6,30.08,East,90,4.9,4.9,45,0.00,,OVC,0.00,WeatherDisplay:10.37,2013-12-16 09:32:00,
2013-12-16 03:37:00,8.6,-8.9,30.07,East,90,4.7,4.7,44,0.00,,OVC,0.00,WeatherDisplay:10.37,2013-12-16 09:37:00,
2013-12-16 03:42:00,8.6,-8.4,30.07,East,90,5.4,5.8,45,0.00,,OVC,0.00,WeatherDisplay:10.37,2013-12-16 09:42:00,
2013-12-16 03:48:00,8.6,-8.0,30.06,East,90,4.7,5.8,46,0.00,,OVC,0.00,WeatherDisplay:10.37,2013-12-16 09:48:00,
2013-12-16 03:53:00,8.6,-8.0,30.06,East,90,4.3,4.6,46,0.00,,OVC,0.00,WeatherDisplay:10.37,2013-12-16 09:53:00,
2013-12-16 03:58:00,8.6,-8.9,30.05,East,90,4.5,4.6,44,0.00,,OVC,0.00,WeatherDisplay:10.37,2013-12-16 09:58:00,
2013-12-16 04:03:00,8.6,-8.4,30.06,ESE,112,4.7,4.7,45,0.00,,OVC,0.00,WeatherDisplay:10.37,2013-12-16 10:03:00,
2013-12-16 04:08:00,8.6,-8.4,30.05,East,90,3.8,4.6,45,0.00,,OVC,0.00,WeatherDisplay:10.37,2013-12-16 10:08:00,
2013-12-16 04:13:00,8.6,-9.4,30.05,East,90,5.4,5.4,43,0.00,,OVC,0.00,WeatherDisplay:10.37,2013-12-16 10:13:00,
2013-12-16 04:18:00,8.8,-9.2,30.05,East,90,4.0,4.0,43,0.00,,OVC,0.00,WeatherDisplay:10.37,2013-12-16 10:18:00,
2013-12-16 04:23:00,8.8,-9.2,30.05,East,90,4.5,4.6,43,0.00,,OVC,0.00,WeatherDisplay:10.37,2013-12-16 10:23:00,
2013-12-16 04:28:00,9.0,-10.5,30.05,East,90,4.9,4.9,40,0.00,,OVC,0.00,WeatherDisplay:10.37,2013-12-16 10:28:00,
2013-12-16 04:33:00,9.0,-9.0,30.05,ESE,112,4.5,5.8,43,0.00,,OVC,0.00,WeatherDisplay:10.37,2013-12-16 10:33:00,
2013-12-16 04:38:00,9.0,-9.0,30.06,East,90,3.1,4.6,43,0.00,,OVC,0.00,WeatherDisplay:10.37,2013-12-16 10:38:00,
2013-12-16 04:43:00,9.0,-9.5,30.05,ESE,112,4.7,4.7,42,0.00,,OVC,0.00,WeatherDisplay:10.37,2013-12-16 10:43:00,
2013-12-16 04:48:00,9.0,-10.0,30.06,ESE,112,4.3,4.6,41,0.00,,OVC,0.00,WeatherDisplay:10.37,2013-12-16 10:48:00,
2013-12-16 04:53:00,9.0,-10.0,30.06,ESE,112,4.3,4.6,41,0.00,,OVC,0.00,WeatherDisplay:10.37,2013-12-16 10:53:00,
2013-12-16 04:58:00,9.0,-10.5,30.06,ESE,112,5.9,5.9,40,0.00,,OVC,0.00,WeatherDisplay:10.37,2013-12-16 10:58:00,
2013-12-16 05:03:00,9.0,-9.5,30.06,ESE,112,3.6,4.6,42,0.00,,OVC,0.00,WeatherDisplay:10.37,2013-12-16 11:03:00,
2013-12-16 05:08:00,9.0,-9.5,30.07,East,90,2.6,3.5,42,0.00,,OVC,0.00,WeatherDisplay:10.37,2013-12-16 11:08:00,
2013-12-16 05:13:00,9.0,-9.5,30.07,ESE,112,3.1,3.5,42,0.00,,OVC,0.00,WeatherDisplay:10.37,2013-12-16 11:13:00,
2013-12-16 05:18:00,9.0,-9.5,30.07,ESE,112,4.0,4.6,42,0.00,,OVC,0.00,WeatherDisplay:10.37,2013-12-16 11:18:00,
2013-12-16 05:23:00,9.1,-9.4,30.06,ESE,112,4.5,4.6,42,0.00,,OVC,0.00,WeatherDisplay:10.37,2013-12-16 11:23:00,
2013-12-16 05:28:00,9.1,-10.3,30.06,ESE,112,5.9,5.9,40,0.00,,OVC,0.00,WeatherDisplay:10.37,2013-12-16 11:28:00,
2013-12-16 05:33:00,9.3,-9.2,30.05,ESE,112,6.2,6.9,42,0.00,,OVC,0.00,WeatherDisplay:10.37,2013-12-16 11:33:00,
2013-12-16 05:38:00,9.3,-9.2,30.05,ESE,112,7.8,8.1,42,0.00,,OVC,0.00,WeatherDisplay:10.37,2013-12-16 11:38:00,
2013-12-16 05:43:00,9.1,-8.9,30.05,ESE,112,7.6,8.1,43,0.00,,OVC,0.00,WeatherDisplay:10.37,2013-12-16 11:43:00,
2013-12-16 05:48:00,9.3,-9.2,30.05,ESE,112,7.4,8.1,42,0.00,,OVC,0.00,WeatherDisplay:10.37,2013-12-16 11:48:00,
2013-12-16 05:53:00,9.3,-8.2,30.05,ESE,112,8.5,9.2,44,0.00,,OVC,0.00,WeatherDisplay:10.37,2013-12-16 11:53:00,
2013-12-16 05:58:00,9.5,-9.5,30.05,ESE,112,6.2,6.9,41,0.00,,OVC,0.00,WeatherDisplay:10.37,2013-12-16 11:58:00,
2013-12-16 06:03:00,9.5,-8.5,30.05,South,180,6.7,8.1,43,0.00,,OVC,0.00,WeatherDisplay:10.37,2013-12-16 12:03:00,
2013-12-16 06:08:00,9.5,-9.0,30.05,ESE,112,7.6,7.6,42,0.00,,OVC,0.00,WeatherDisplay:10.37,2013-12-16 12:08:00,
2013-12-16 06:13:00,9.5,-9.0,30.05,South,180,6.2,8.1,42,0.00,,OVC,0.00,WeatherDisplay:10.37,2013-12-16 12:13:00,
2013-12-16 06:18:00,9.7,-11.4,30.04,ESE,112,7.4,8.1,37,0.00,,OVC,0.00,WeatherDisplay:10.37,2013-12-16 12:18:00,
2013-12-16 06:23:00,9.7,-9.3,30.04,ESE,112,7.6,8.1,41,0.00,,OVC,0.00,WeatherDisplay:10.37,2013-12-16 12:23:00,
2013-12-16 06:28:00,9.7,-10.9,30.04,ESE,112,8.5,9.2,38,0.00,,OVC,0.00,WeatherDisplay:10.37,2013-12-16 12:28:00,
2013-12-16 06:33:00,9.7,-10.9,30.04,ESE,112,8.7,8.7,38,0.00,,OVC,0.00,WeatherDisplay:10.37,2013-12-16 12:33:00,
2013-12-16 06:38:00,9.9,-11.8,30.03,ESE,112,7.8,9.2,36,0.00,,OVC,0.00,WeatherDisplay:10.37,2013-12-16 12:38:00,
2013-12-16 06:43:00,9.7,-10.9,30.04,ESE,112,7.6,10.4,38,0.00,,OVC,0.00,WeatherDisplay:10.37,2013-12-16 12:43:00,
2013-12-16 06:48:00,9.9,-10.7,30.04,ESE,112,7.1,9.2,38,0.00,,OVC,0.00,WeatherDisplay:10.37,2013-12-16 12:48:00,
2013-12-16 06:53:00,9.9,-11.8,30.04,ESE,112,10.2,10.4,36,0.00,,OVC,0.00,WeatherDisplay:10.37,2013-12-16 12:53:00,
2013-12-16 06:58:00,10.0,-11.7,30.04,South,180,7.6,9.2,36,0.00,,OVC,0.00,WeatherDisplay:10.37,2013-12-16 12:58:00,
2013-12-16 07:03:00,10.2,-11.5,30.04,ESE,112,10.2,10.4,36,0.00,,OVC,0.00,WeatherDisplay:10.37,2013-12-16 13:03:00,
2013-12-16 07:08:00,10.2,-11.5,30.04,ESE,112,7.6,9.2,36,0.00,,OVC,0.00,WeatherDisplay:10.37,2013-12-16 13:08:00,
2013-12-16 07:13:00,10.2,-10.9,30.05,ESE,112,7.6,8.1,37,0.00,,OVC,0.00,WeatherDisplay:10.37,2013-12-16 13:13:00,
2013-12-16 07:18:00,10.4,-11.3,30.05,ESE,112,6.4,9.2,36,0.00,,OVC,0.00,WeatherDisplay:10.37,2013-12-16 13:18:00,
2013-12-16 07:23:00,10.4,-11.3,30.05,ESE,112,6.7,8.1,36,0.00,,OVC,0.00,WeatherDisplay:10.37,2013-12-16 13:23:00,
2013-12-16 07:28:00,10.4,-11.3,30.05,ESE,112,6.0,8.1,36,0.00,,OVC,0.00,WeatherDisplay:10.37,2013-12-16 13:28:00,
2013-12-16 07:33:00,10.6,-12.3,30.05,ESE,112,8.5,8.5,34,0.00,,OVC,0.00,WeatherDisplay:10.37,2013-12-16 13:33:00,
2013-12-16 07:38:00,10.4,-11.3,30.04,ESE,112,8.7,9.2,36,0.00,,OVC,0.00,WeatherDisplay:10.37,2013-12-16 13:38:00,
2013-12-16 07:43:00,10.6,-11.2,30.04,ESE,112,9.7,9.7,36,0.00,,OVC,0.00,WeatherDisplay:10.37,2013-12-16 13:43:00,
2013-12-16 07:48:00,10.6,-11.2,30.04,ESE,112,9.9,11.5,36,0.00,,OVC,0.00,WeatherDisplay:10.37,2013-12-16 13:48:00,
2013-12-16 07:53:00,10.6,-10.6,30.04,ESE,112,9.2,10.4,37,0.00,,OVC,0.00,WeatherDisplay:10.37,2013-12-16 13:53:00,
2013-12-16 07:58:00,10.8,-11.6,30.04,South,180,12.1,12.1,35,0.00,,OVC,0.00,WeatherDisplay:10.37,2013-12-16 13:58:00,
2013-12-16 08:03:00,10.8,-11.0,30.04,South,180,9.4,11.5,36,0.00,,OVC,0.00,WeatherDisplay:10.37,2013-12-16 14:03:00,
2013-12-16 08:09:00,10.8,-10.5,30.05,ESE,112,10.2,10.4,37,0.00,,OVC,0.00,WeatherDisplay:10.37,2013-12-16 14:09:00,
2013-12-16 08:14:00,10.8,-11.0,30.04,South,180,11.4,11.4,36,0.00,,OVC,0.00,WeatherDisplay:10.37,2013-12-16 14:14:00,
2013-12-16 08:19:00,10.9,-10.8,30.04,South,180,11.6,11.6,36,0.00,,OVC,0.00,WeatherDisplay:10.37,2013-12-16 14:19:00,
2013-12-16 08:24:00,10.9,-10.8,30.05,ESE,112,10.0,11.5,36,0.00,,OVC,0.00,WeatherDisplay:10.37,2013-12-16 14:24:00,
2013-12-16 08:29:00,10.9,-11.4,30.05,ESE,112,7.4,8.1,35,0.00,,OVC,0.00,WeatherDisplay:10.37,2013-12-16 14:29:00,
2013-12-16 08:34:00,11.1,-12.4,30.05,ESE,112,9.9,9.9,33,0.00,,OVC,0.00,WeatherDisplay:10.37,2013-12-16 14:34:00,
2013-12-16 08:39:00,11.1,-11.3,30.05,ESE,112,10.9,12.7,35,0.00,,OVC,0.00,WeatherDisplay:10.37,2013-12-16 14:39:00,
2013-12-16 08:44:00,11.1,-13.1,30.04,ESE,112,10.5,10.5,32,0.00,,OVC,0.00,WeatherDisplay:10.37,2013-12-16 14:44:00,
2013-12-16 08:49:00,11.1,-13.7,30.04,ESE,112,11.4,11.4,31,0.00,,OVC,0.00,WeatherDisplay:10.37,2013-12-16 14:49:00,
2013-12-16 08:54:00,11.1,-11.3,30.05,ESE,112,12.1,13.8,35,0.00,,OVC,0.00,WeatherDisplay:10.37,2013-12-16 14:54:00,
2013-12-16 08:59:00,11.1,-13.1,30.04,ESE,112,9.9,11.5,32,0.00,,OVC,0.00,WeatherDisplay:10.37,2013-12-16 14:59:00,
2013-12-16 09:04:00,11.3,-14.2,30.04,ESE,112,7.4,11.5,30,0.00,,OVC,0.00,WeatherDisplay:10.37,2013-12-16 15:04:00,
2013-12-16 09:09:00,11.3,-12.9,30.04,ESE,112,10.2,11.5,32,0.00,,OVC,0.00,WeatherDisplay:10.37,2013-12-16 15:09:00,
2013-12-16 09:14:00,11.5,-13.4,30.04,ESE,112,13.0,13.0,31,0.00,,OVC,0.00,WeatherDisplay:10.37,2013-12-16 15:14:00,
2013-12-16 09:19:00,11.5,-12.7,30.04,ESE,112,11.4,11.5,32,0.00,,OVC,0.00,WeatherDisplay:10.37,2013-12-16 15:19:00,
2013-12-16 09:24:00,11.7,-13.2,30.04,ESE,112,11.4,11.5,31,0.00,,OVC,0.00,WeatherDisplay:10.37,2013-12-16 15:24:00,
2013-12-16 09:29:00,11.7,-13.9,30.04,ESE,112,12.3,12.7,30,0.00,,OVC,0.00,WeatherDisplay:10.37,2013-12-16 15:29:00,
2013-12-16 09:34:00,11.8,-14.4,30.04,ESE,112,11.6,11.6,29,0.00,,OVC,0.00,WeatherDisplay:10.37,2013-12-16 15:34:00,
2013-12-16 09:39:00,11.8,-11.8,30.04,ESE,112,11.4,12.7,33,0.00,,OVC,0.00,WeatherDisplay:10.37,2013-12-16 15:39:00,
2013-12-16 09:44:00,11.8,-11.2,30.05,ESE,112,13.2,13.8,34,0.00,,OVC,0.00,WeatherDisplay:10.37,2013-12-16 15:44:00,
2013-12-16 09:49:00,11.8,-12.4,30.05,ESE,112,10.0,11.5,32,0.00,,OVC,0.00,WeatherDisplay:10.37,2013-12-16 15:49:00,
2013-12-16 09:54:00,11.8,-12.4,30.05,South,180,8.5,10.4,32,0.00,,OVC,0.00,WeatherDisplay:10.37,2013-12-16 15:54:00,
2013-12-16 09:59:00,12.0,-12.9,30.05,ESE,112,9.4,10.4,31,0.00,,OVC,0.00,WeatherDisplay:10.37,2013-12-16 15:59:00,
2013-12-16 10:04:00,12.2,-14.8,30.05,South,180,11.8,11.8,28,0.00,,OVC,0.00,WeatherDisplay:10.37,2013-12-16 16:04:00,
2013-12-16 10:09:00,12.4,-15.3,30.05,South,180,12.1,12.1,27,0.00,,OVC,0.00,WeatherDisplay:10.37,2013-12-16 16:09:00,
2013-12-16 10:14:00,12.4,-16.1,30.05,South,180,9.4,11.5,26,0.00,,OVC,0.00,WeatherDisplay:10.37,2013-12-16 16:14:00,
2013-12-16 10:19:00,12.4,-21.2,30.05,South,180,11.2,11.2,20,0.00,,OVC,0.00,WeatherDisplay:10.37,2013-12-16 16:19:00,
2013-12-16 10:24:00,12.6,-24.1,30.04,South,180,10.5,10.5,17,0.00,,OVC,0.00,WeatherDisplay:10.37,2013-12-16 16:24:00,
2013-12-16 10:29:00,12.6,-25.2,30.04,ESE,112,10.5,10.5,16,0.00,,OVC,0.00,WeatherDisplay:10.37,2013-12-16 16:29:00,
2013-12-16 10:34:00,12.6,-25.2,30.04,ESE,112,10.0,12.7,16,0.00,,OVC,0.00,WeatherDisplay:10.37,2013-12-16 16:34:00,
2013-12-16 10:39:00,12.9,-31.9,30.04,South,180,9.9,10.4,11,0.00,,OVC,0.00,WeatherDisplay:10.37,2013-12-16 16:39:00,
2013-12-16 10:44:00,13.1,-31.7,30.03,ESE,112,9.9,10.4,11,0.00,,OVC,0.00,WeatherDisplay:10.37,2013-12-16 16:44:00,
2013-12-16 10:49:00,13.3,-23.5,30.03,South,180,13.2,13.2,17,0.00,,OVC,0.00,WeatherDisplay:10.37,2013-12-16 16:49:00,
2013-12-16 10:54:00,13.3,-19.5,30.02,ESE,112,10.5,12.7,21,0.00,,OVC,0.00,WeatherDisplay:10.37,2013-12-16 16:54:00,
2013-12-16 10:59:00,13.3,-17.7,30.02,ESE,112,12.1,12.1,23,0.00,,OVC,0.00,WeatherDisplay:10.37,2013-12-16 16:59:00,
2013-12-16 11:04:00,13.5,-12.3,30.02,ESE,112,11.8,13.8,30,0.00,,OVC,0.00,WeatherDisplay:10.37,2013-12-16 17:04:00,
2013-12-16 11:09:00,13.8,-9.4,30.00,South,180,12.8,13.8,34,0.00,,OVC,0.00,WeatherDisplay:10.37,2013-12-16 17:09:00,
2013-12-16 11:14:00,14.0,-10.5,30.00,ESE,112,12.8,12.8,32,0.00,,OVC,0.00,WeatherDisplay:10.37,2013-12-16 17:14:00,
2013-12-16 11:19:00,14.0,-10.5,30.00,South,180,10.7,12.7,32,0.00,,OVC,0.00,WeatherDisplay:10.37,2013-12-16 17:19:00,
2013-12-16 11:24:00,14.0,-10.5,30.00,South,180,10.7,12.7,32,0.00,,OVC,0.00,WeatherDisplay:10.37,2013-12-16 17:24:00,
2013-12-16 11:29:00,14.4,-11.5,30.00,South,180,9.4,11.5,30,0.00,,OVC,0.00,WeatherDisplay:10.37,2013-12-16 17:29:00,
2013-12-16 11:34:00,14.7,-12.6,30.00,South,180,10.2,10.2,28,0.00,,OVC,0.00,WeatherDisplay:10.37,2013-12-16 17:34:00,
2013-12-16 11:39:00,14.7,-8.0,30.00,South,180,10.5,12.7,35,0.00,,OVC,0.00,WeatherDisplay:10.37,2013-12-16 17:39:00,
2013-12-16 11:44:00,14.5,-8.8,30.00,South,180,13.9,13.9,34,0.00,,OVC,0.00,WeatherDisplay:10.37,2013-12-16 17:44:00,
2013-12-16 11:49:00,14.5,-10.7,30.00,South,180,11.8,12.7,31,0.00,,OVC,0.00,WeatherDisplay:10.37,2013-12-16 17:49:00,
2013-12-16 11:54:00,14.5,-12.0,30.00,South,180,10.5,11.5,29,0.00,,OVC,0.00,WeatherDisplay:10.37,2013-12-16 17:54:00,
2013-12-16 11:59:00,14.7,-12.6,30.00,South,180,7.4,9.2,28,0.00,,OVC,0.00,WeatherDisplay:10.37,2013-12-16 17:59:00,
2013-12-16 12:04:00,14.9,-13.9,30.00,South,180,6.9,8.1,26,0.00,,OVC,0.00,WeatherDisplay:10.37,2013-12-16 18:04:00,
2013-12-16 12:09:00,14.9,-11.0,29.99,South,180,9.7,9.7,30,0.00,,OVC,0.00,WeatherDisplay:10.37,2013-12-16 18:09:00,
2013-12-16 12:14:00,14.9,-11.0,29.99,South,180,7.6,9.2,30,0.00,,OVC,0.00,WeatherDisplay:10.37,2013-12-16 18:14:00,
2013-12-16 12:20:00,15.1,-10.9,29.98,South,180,8.5,10.4,30,0.00,,OVC,0.00,WeatherDisplay:10.37,2013-12-16 18:20:00,
2013-12-16 12:25:00,15.1,-11.5,29.98,South,180,9.9,9.9,29,0.00,,OVC,0.00,WeatherDisplay:10.37,2013-12-16 18:25:00,
2013-12-16 12:30:00,15.3,-10.7,29.98,South,180,9.4,10.4,30,0.00,,OVC,0.00,WeatherDisplay:10.37,2013-12-16 18:30:00,
2013-12-16 12:35:00,15.3,-9.4,29.98,South,180,7.6,10.4,32,0.00,,OVC,0.00,WeatherDisplay:10.37,2013-12-16 18:35:00,
2013-12-16 12:40:00,15.4,-10.5,29.98,South,180,5.4,6.9,30,0.00,,OVC,0.00,WeatherDisplay:10.37,2013-12-16 18:40:00,
2013-12-16 12:45:00,15.4,-9.9,29.97,South,180,8.1,8.1,31,0.00,,OVC,0.00,WeatherDisplay:10.37,2013-12-16 18:45:00,
2013-12-16 12:50:00,15.4,-9.2,29.98,SSW,202,5.9,9.2,32,0.00,,OVC,0.00,WeatherDisplay:10.37,2013-12-16 18:50:00,
2013-12-16 12:55:00,15.6,-11.1,29.98,South,180,6.9,6.9,29,0.00,,OVC,0.00,WeatherDisplay:10.37,2013-12-16 18:55:00,
2013-12-16 13:00:00,15.6,-11.1,29.98,South,180,9.9,9.9,29,0.00,,OVC,0.00,WeatherDisplay:10.37,2013-12-16 19:00:00,
2013-12-16 13:05:00,15.6,-11.1,29.97,South,180,7.6,7.6,29,0.00,,OVC,0.00,WeatherDisplay:10.37,2013-12-16 19:05:00,
2013-12-16 13:10:00,15.6,-11.1,29.97,South,180,6.9,6.9,29,0.00,,OVC,0.00,WeatherDisplay:10.37,2013-12-16 19:10:00,
2013-12-16 13:15:00,15.8,-14.7,29.97,SSW,202,6.2,6.2,24,0.00,,OVC,0.00,WeatherDisplay:10.37,2013-12-16 19:15:00,
2013-12-16 13:20:00,16.0,-12.9,29.97,SSW,202,6.2,6.9,26,0.00,,OVC,0.00,WeatherDisplay:10.37,2013-12-16 19:20:00,
2013-12-16 13:25:00,16.2,-15.2,29.97,SSW,202,6.2,6.2,23,0.00,,OVC,0.00,WeatherDisplay:10.37,2013-12-16 19:25:00,
2013-12-16 13:30:00,16.2,-14.4,29.97,South,180,6.4,6.4,24,0.00,,OVC,0.00,WeatherDisplay:10.37,2013-12-16 19:30:00,
2013-12-16 13:35:00,16.2,-14.4,29.97,South,180,6.9,6.9,24,0.00,,OVC,0.00,WeatherDisplay:10.37,2013-12-16 19:35:00,
2013-12-16 13:40:00,16.2,-15.2,29.97,South,180,5.4,5.8,23,0.00,,OVC,0.00,WeatherDisplay:10.37,2013-12-16 19:40:00,
2013-12-16 13:45:00,16.2,-14.4,29.97,SSW,202,7.1,7.1,24,0.00,,OVC,0.00,WeatherDisplay:10.37,2013-12-16 19:45:00,
2013-12-16 13:50:00,16.2,-18.0,29.95,South,180,7.8,8.1,20,0.00,,OVC,0.00,WeatherDisplay:10.37,2013-12-16 19:50:00,
2013-12-16 13:55:00,16.3,-23.3,29.97,SSW,202,6.9,6.9,15,0.00,,OVC,0.00,WeatherDisplay:10.37,2013-12-16 19:55:00,
2013-12-16 14:00:00,16.3,-24.6,29.97,SSW,202,5.4,6.9,14,0.00,,OVC,0.00,WeatherDisplay:10.37,2013-12-16 20:00:00,
2013-12-16 14:05:00,16.5,-32.6,29.98,SSW,202,4.9,5.8,9,0.00,,OVC,0.00,WeatherDisplay:10.37,2013-12-16 20:05:00,
2013-12-16 14:10:00,16.9,-32.4,29.98,SSW,202,4.7,4.7,9,0.00,,OVC,0.00,WeatherDisplay:10.37,2013-12-16 20:10:00,
2013-12-16 14:15:00,16.9,-30.5,29.99,West,270,6.9,6.9,10,0.00,,OVC,0.00,WeatherDisplay:10.37,2013-12-16 20:15:00,
2013-12-16 14:20:00,16.9,-30.5,29.98,West,270,5.4,5.8,10,0.00,,OVC,0.00,WeatherDisplay:10.37,2013-12-16 20:20:00,
2013-12-16 14:25:00,16.7,-27.2,29.98,SSW,202,6.2,8.1,12,0.00,,OVC,0.00,WeatherDisplay:10.37,2013-12-16 20:25:00,
2013-12-16 14:30:00,16.5,-27.4,29.98,SSW,202,4.7,4.7,12,0.00,,OVC,0.00,WeatherDisplay:10.37,2013-12-16 20:30:00,
2013-12-16 14:35:00,16.7,-30.6,29.98,SSW,202,4.3,4.6,10,0.00,,OVC,0.00,WeatherDisplay:10.37,2013-12-16 20:35:00,
2013-12-16 14:40:00,16.9,-32.4,29.99,SSW,202,3.1,6.9,9,0.00,,OVC,0.00,WeatherDisplay:10.37,2013-12-16 20:40:00,
2013-12-16 14:45:00,16.7,-25.7,30.00,West,270,8.5,8.5,13,0.00,,OVC,0.00,WeatherDisplay:10.37,2013-12-16 20:45:00,
2013-12-16 14:50:00,16.7,-27.2,30.00,West,270,6.7,6.9,12,0.00,,OVC,0.00,WeatherDisplay:10.37,2013-12-16 20:50:00,
2013-12-16 14:55:00,16.7,-32.5,30.00,West,270,5.9,8.1,9,0.00,,OVC,0.00,WeatherDisplay:10.37,2013-12-16 20:55:00,
2013-12-16 15:00:00,16.7,-37.0,30.00,West,270,6.4,6.4,7,0.00,,OVC,0.00,WeatherDisplay:10.37,2013-12-16 21:00:00,
2013-12-16 15:05:00,16.9,-57.7,30.00,West,270,6.7,6.9,2,0.00,,OVC,0.00,WeatherDisplay:10.37,2013-12-16 21:05:00,
2013-12-16 15:10:00,16.9,-57.7,30.00,West,270,5.4,6.9,2,0.00,,OVC,0.00,WeatherDisplay:10.37,2013-12-16 21:10:00,
2013-12-16 15:15:00,16.9,-68.2,30.00,West,270,8.1,8.1,1,0.00,,OVC,0.00,WeatherDisplay:10.37,2013-12-16 21:15:00,
2013-12-16 15:20:00,17.1,-68.1,30.00,West,270,6.9,6.9,1,0.00,,OVC,0.00,WeatherDisplay:10.37,2013-12-16 21:20:00,
2013-12-16 15:25:00,17.1,-68.1,30.00,West,270,6.4,6.9,1,0.00,,OVC,0.00,WeatherDisplay:10.37,2013-12-16 21:25:00,
2013-12-16 15:30:00,17.1,-68.1,30.00,West,270,5.6,5.6,1,0.00,,OVC,0.00,WeatherDisplay:10.37,2013-12-16 21:30:00,
2013-12-16 15:35:00,17.2,-68.0,30.00,SSW,202,4.7,4.7,1,0.00,,OVC,0.00,WeatherDisplay:10.37,2013-12-16 21:35:00,
2013-12-16 15:40:00,17.4,-67.9,30.02,West,270,6.9,6.9,1,0.00,,OVC,0.00,WeatherDisplay:10.37,2013-12-16 21:40:00,
2013-12-16 15:45:00,17.6,-67.8,30.02,West,270,7.8,9.2,1,0.00,,OVC,0.00,WeatherDisplay:10.37,2013-12-16 21:45:00,
2013-12-16 15:50:00,17.8,-67.7,30.02,West,270,6.0,6.9,1,0.00,,OVC,0.00,WeatherDisplay:10.37,2013-12-16 21:50:00,
2013-12-16 15:55:00,17.8,-67.7,30.02,West,270,6.9,6.9,1,0.00,,OVC,0.00,WeatherDisplay:10.37,2013-12-16 21:55:00,
2013-12-16 16:00:00,18.0,-67.6,30.00,West,270,7.1,8.1,1,0.00,,OVC,0.00,WeatherDisplay:10.37,2013-12-16 22:00:00,
2013-12-16 16:05:00,18.0,-67.6,30.02,West,270,9.0,9.2,1,0.00,,OVC,0.00,WeatherDisplay:10.37,2013-12-16 22:05:00,
2013-12-16 16:10:00,18.0,-67.6,30.02,West,270,8.3,9.2,1,0.00,,OVC,0.00,WeatherDisplay:10.37,2013-12-16 22:10:00,
2013-12-16 16:15:00,18.0,-67.6,30.00,West,270,6.9,6.9,1,0.00,,OVC,0.00,WeatherDisplay:10.37,2013-12-16 22:15:00,
2013-12-16 16:20:00,18.0,-67.6,30.00,West,270,6.9,6.9,1,0.00,,OVC,0.00,WeatherDisplay:10.37,2013-12-16 22:20:00,
2013-12-16 16:25:00,18.0,-67.6,30.00,West,270,5.9,5.9,1,0.00,,OVC,0.00,WeatherDisplay:10.37,2013-12-16 22:25:00,
2013-12-16 16:30:00,18.0,-67.6,30.02,West,270,8.3,8.3,1,0.00,,OVC,0.00,WeatherDisplay:10.37,2013-12-16 22:30:00,
2013-12-16 16:35:00,18.0,-67.6,30.02,West,270,7.8,9.2,1,0.00,,OVC,0.00,WeatherDisplay:10.37,2013-12-16 22:35:00,
2013-12-16 16:40:00,18.0,-67.6,30.00,West,270,6.9,6.9,1,0.00,,OVC,0.00,WeatherDisplay:10.37,2013-12-16 22:40:00,
2013-12-16 16:45:00,18.0,-67.6,30.00,West,270,6.7,8.1,1,0.00,,OVC,0.00,WeatherDisplay:10.37,2013-12-16 22:45:00,
2013-12-16 16:50:00,18.1,-67.4,30.00,West,270,6.2,6.9,1,0.00,,OVC,0.00,WeatherDisplay:10.37,2013-12-16 22:50:00,
2013-12-16 16:55:00,18.1,-67.4,30.00,West,270,7.4,8.1,1,0.00,,OVC,0.00,WeatherDisplay:10.37,2013-12-16 22:55:00,
2013-12-16 17:00:00,18.1,-67.4,30.00,West,270,7.8,8.1,1,0.00,,OVC,0.00,WeatherDisplay:10.37,2013-12-16 23:00:00,
2013-12-16 17:05:00,18.1,-67.4,30.00,West,270,7.6,8.1,1,0.00,,OVC,0.00,WeatherDisplay:10.37,2013-12-16 23:05:00,
2013-12-16 17:11:00,18.1,-67.4,30.00,West,270,7.8,8.1,1,0.00,,OVC,0.00,WeatherDisplay:10.37,2013-12-16 23:11:00,
2013-12-16 17:16:00,18.1,-67.4,30.00,West,270,8.7,8.7,1,0.00,,OVC,0.00,WeatherDisplay:10.37,2013-12-16 23:16:00,
2013-12-16 17:21:00,18.3,-67.3,30.00,West,270,7.8,8.1,1,0.00,,OVC,0.00,WeatherDisplay:10.37,2013-12-16 23:21:00,
2013-12-16 17:26:00,18.3,-67.3,30.00,West,270,6.4,8.1,1,0.00,,OVC,0.00,WeatherDisplay:10.37,2013-12-16 23:26:00,
2013-12-16 17:31:00,18.3,-67.3,30.00,West,270,8.7,8.7,1,0.00,,OVC,0.00,WeatherDisplay:10.37,2013-12-16 23:31:00,
2013-12-16 17:36:00,18.3,-67.3,30.00,West,270,7.4,9.2,1,0.00,,OVC,0.00,WeatherDisplay:10.37,2013-12-16 23:36:00,
2013-12-16 17:41:00,18.3,-67.3,30.00,West,270,7.4,8.1,1,0.00,,OVC,0.00,WeatherDisplay:10.37,2013-12-16 23:41:00,
2013-12-16 17:46:00,18.3,-67.3,30.02,West,270,8.3,8.3,1,0.00,,OVC,0.00,WeatherDisplay:10.37,2013-12-16 23:46:00,
2013-12-16 17:51:00,18.3,-67.3,30.03,West,270,9.2,10.4,1,0.00,,OVC,0.00,WeatherDisplay:10.37,2013-12-16 23:51:00,
2013-12-16 17:56:00,18.5,-67.2,30.03,West,270,6.9,9.2,1,0.00,,OVC,0.00,WeatherDisplay:10.37,2013-12-16 23:56:00,
2013-12-16 18:01:00,18.5,-67.2,30.02,West,270,8.3,8.3,1,0.00,,OVC,0.00,WeatherDisplay:10.37,2013-12-17 00:01:00,
2013-12-16 18:06:00,18.5,-67.2,30.03,West,270,7.6,8.1,1,0.00,,OVC,0.00,WeatherDisplay:10.37,2013-12-17 00:06:00,
2013-12-16 18:11:00,18.7,-67.1,30.03,West,270,6.7,6.9,1,0.00,,OVC,0.00,WeatherDisplay:10.37,2013-12-17 00:11:00,
2013-12-16 18:16:00,18.7,-67.1,30.03,West,270,6.2,6.9,1,0.00,,OVC,0.00,WeatherDisplay:10.37,2013-12-17 00:16:00,
2013-12-16 18:21:00,18.7,-67.1,30.03,West,270,6.0,8.1,1,0.00,,OVC,0.00,WeatherDisplay:10.37,2013-12-17 00:21:00,
2013-12-16 18:26:00,18.7,-67.1,30.03,West,270,9.2,10.4,1,0.00,,OVC,0.00,WeatherDisplay:10.37,2013-12-17 00:26:00,
2013-12-16 18:31:00,18.9,-67.0,30.03,West,270,8.7,9.2,1,0.00,,OVC,0.00,WeatherDisplay:10.37,2013-12-17 00:31:00,
2013-12-16 18:36:00,18.9,-67.0,30.03,West,270,9.4,9.4,1,0.00,,OVC,0.00,WeatherDisplay:10.37,2013-12-17 00:36:00,
2013-12-16 18:41:00,19.0,-66.9,30.03,WNW,292,8.3,8.3,1,0.00,,OVC,0.00,WeatherDisplay:10.37,2013-12-17 00:41:00,
2013-12-16 18:46:00,19.0,-66.9,30.03,WNW,292,5.9,6.9,1,0.00,,OVC,0.00,WeatherDisplay:10.37,2013-12-17 00:46:00,
2013-12-16 18:51:00,19.0,-66.9,30.03,WNW,292,6.2,6.2,1,0.00,,OVC,0.00,WeatherDisplay:10.37,2013-12-17 00:51:00,
2013-12-16 18:56:00,19.0,-66.9,30.03,WNW,292,4.9,6.9,1,0.00,,OVC,0.00,WeatherDisplay:10.37,2013-12-17 00:56:00,
2013-12-16 19:01:00,19.2,-66.8,30.03,West,270,7.1,8.1,1,0.00,,OVC,0.00,WeatherDisplay:10.37,2013-12-17 01:01:00,
2013-12-16 19:06:00,19.2,-66.8,30.03,WNW,292,7.6,9.2,1,0.00,,OVC,0.00,WeatherDisplay:10.37,2013-12-17 01:06:00,
2013-12-16 19:11:00,19.4,-66.6,30.02,WNW,292,8.7,8.7,1,0.00,,OVC,0.00,WeatherDisplay:10.37,2013-12-17 01:11:00,
2013-12-16 19:16:00,19.4,-66.6,30.02,WNW,292,5.2,6.9,1,0.00,,OVC,0.00,WeatherDisplay:10.37,2013-12-17 01:16:00,
2013-12-16 19:21:00,19.4,-66.6,30.03,WNW,292,4.9,4.9,1,0.00,,OVC,0.00,WeatherDisplay:10.37,2013-12-17 01:21:00,
2013-12-16 19:25:00,19.4,-66.6,30.03,WNW,292,5.9,6.9,1,0.00,,OVC,0.00,WeatherDisplay:10.37,2013-12-17 01:25:00,
2013-12-16 19:30:00,19.4,-66.6,30.03,WNW,292,6.0,8.1,1,0.00,,OVC,0.00,WeatherDisplay:10.37,2013-12-17 01:30:00,
2013-12-16 19:35:00,19.4,-66.6,30.03,WNW,292,7.4,8.1,1,0.00,,OVC,0.00,WeatherDisplay:10.37,2013-12-17 01:35:00,
2013-12-16 19:40:00,19.4,-66.6,30.03,WNW,292,5.4,5.8,1,0.00,,OVC,0.00,WeatherDisplay:10.37,2013-12-17 01:40:00,
2013-12-16 19:45:00,19.4,-66.6,30.03,WNW,292,5.2,5.2,1,0.00,,OVC,0.00,WeatherDisplay:10.37,2013-12-17 01:45:00,
2013-12-16 19:50:00,19.4,-66.6,30.03,WNW,292,6.9,6.9,1,0.00,,OVC,0.00,WeatherDisplay:10.37,2013-12-17 01:50:00,
2013-12-16 19:55:00,19.4,-66.6,30.03,WNW,292,4.5,5.8,1,0.00,,OVC,0.00,WeatherDisplay:10.37,2013-12-17 01:55:00,
2013-12-16 20:01:00,19.2,-66.8,30.03,WNW,292,6.9,8.1,1,0.00,,OVC,0.00,WeatherDisplay:10.37,2013-12-17 02:01:00,
2013-12-16 20:06:00,19.2,-66.8,30.03,WNW,292,4.7,4.7,1,0.00,,OVC,0.00,WeatherDisplay:10.37,2013-12-17 02:06:00,
2013-12-16 20:11:00,19.2,-66.8,30.03,WNW,292,6.2,9.2,1,0.00,,OVC,0.00,WeatherDisplay:10.37,2013-12-17 02:11:00,
2013-12-16 20:16:00,19.2,-66.8,30.03,WNW,292,5.2,5.8,1,0.00,,OVC,0.00,WeatherDisplay:10.37,2013-12-17 02:16:00,
2013-12-16 20:21:00,19.0,-66.9,30.03,WNW,292,5.2,5.2,1,0.00,,OVC,0.00,WeatherDisplay:10.37,2013-12-17 02:21:00,
2013-12-16 20:26:00,19.0,-66.9,30.03,WNW,292,5.2,5.8,1,0.00,,OVC,0.00,WeatherDisplay:10.37,2013-12-17 02:26:00,
2013-12-16 20:31:00,19.0,-66.9,30.03,WNW,292,7.1,7.1,1,0.00,,OVC,0.00,WeatherDisplay:10.37,2013-12-17 02:31:00,
2013-12-16 20:36:00,19.0,-66.9,30.03,WNW,292,3.8,5.8,1,0.00,,OVC,0.00,WeatherDisplay:10.37,2013-12-17 02:36:00,
2013-12-16 20:41:00,18.9,-67.0,30.03,WNW,292,7.6,7.6,1,0.00,,OVC,0.00,WeatherDisplay:10.37,2013-12-17 02:41:00,
2013-12-16 20:46:00,18.9,-67.0,30.03,WNW,292,7.6,8.1,1,0.00,,OVC,0.00,WeatherDisplay:10.37,2013-12-17 02:46:00,
2013-12-16 20:51:00,18.7,-67.1,30.02,WNW,292,7.6,9.2,1,0.00,,OVC,0.00,WeatherDisplay:10.37,2013-12-17 02:51:00,
2013-12-16 20:56:00,18.7,-67.1,30.03,WNW,292,7.8,8.1,1,0.00,,OVC,0.00,WeatherDisplay:10.37,2013-12-17 02:56:00,
2013-12-16 21:01:00,18.5,-67.2,30.03,WNW,292,6.2,6.2,1,0.00,,OVC,0.00,WeatherDisplay:10.37,2013-12-17 03:01:00,
2013-12-16 21:06:00,18.5,-67.2,30.03,WNW,292,7.8,8.1,1,0.00,,OVC,0.00,WeatherDisplay:10.37,2013-12-17 03:06:00,
2013-12-16 21:11:00,18.7,-67.1,30.03,WNW,292,6.2,6.9,1,0.00,,OVC,0.00,WeatherDisplay:10.37,2013-12-17 03:11:00,
2013-12-16 21:16:00,18.7,-67.1,30.03,West,270,8.5,8.5,1,0.00,,OVC,0.00,WeatherDisplay:10.37,2013-12-17 03:16:00,
2013-12-16 21:21:00,18.9,-67.0,30.03,WNW,292,9.2,9.2,1,0.00,,OVC,0.00,WeatherDisplay:10.37,2013-12-17 03:21:00,
2013-12-16 21:26:00,18.9,-67.0,30.03,WNW,292,7.6,8.1,1,0.00,,OVC,0.00,WeatherDisplay:10.37,2013-12-17 03:26:00,
2013-12-16 21:31:00,18.9,-67.0,30.03,West,270,6.4,6.9,1,0.00,,OVC,0.00,WeatherDisplay:10.37,2013-12-17 03:31:00,
2013-12-16 21:36:00,18.9,-67.0,30.04,WNW,292,7.6,8.1,1,0.00,,OVC,0.00,WeatherDisplay:10.37,2013-12-17 03:36:00,
2013-12-16 21:41:00,18.9,-67.0,30.04,West,270,7.6,8.1,1,0.00,,OVC,0.00,WeatherDisplay:10.37,2013-12-17 03:41:00,
2013-12-16 21:46:00,19.0,-66.9,30.04,West,270,9.2,9.2,1,0.00,,OVC,0.00,WeatherDisplay:10.37,2013-12-17 03:46:00,
2013-12-16 21:51:00,19.0,-66.9,30.04,West,270,7.4,7.4,1,0.00,,OVC,0.00,WeatherDisplay:10.37,2013-12-17 03:51:00,
2013-12-16 21:56:00,19.0,-66.9,30.04,West,270,9.0,9.2,1,0.00,,OVC,0.00,WeatherDisplay:10.37,2013-12-17 03:56:00,
2013-12-16 22:01:00,19.0,-66.9,30.04,West,270,10.5,10.5,1,0.00,,OVC,0.00,WeatherDisplay:10.37,2013-12-17 04:01:00,
2013-12-16 22:06:00,19.2,-66.8,30.04,West,270,10.7,10.7,1,0.00,,OVC,0.00,WeatherDisplay:10.37,2013-12-17 04:06:00,
2013-12-16 22:11:00,19.2,-66.8,30.04,West,270,9.4,9.4,1,0.00,,OVC,0.00,WeatherDisplay:10.37,2013-12-17 04:11:00,
2013-12-16 22:16:00,19.4,-66.6,30.04,West,270,9.9,11.5,1,0.00,,OVC,0.00,WeatherDisplay:10.37,2013-12-17 04:16:00,
2013-12-16 22:21:00,19.4,-66.6,30.03,West,270,8.3,9.2,1,0.00,,OVC,0.00,WeatherDisplay:10.37,2013-12-17 04:21:00,
2013-12-16 22:26:00,19.4,-66.6,30.04,West,270,9.2,9.2,1,0.00,,OVC,0.00,WeatherDisplay:10.37,2013-12-17 04:26:00,
2013-12-16 22:31:00,19.2,-66.8,30.04,West,270,8.1,9.2,1,0.00,,OVC,0.00,WeatherDisplay:10.37,2013-12-17 04:31:00,
2013-12-16 22:36:00,19.0,-66.9,30.04,West,270,8.1,8.1,1,0.00,,OVC,0.00,WeatherDisplay:10.37,2013-12-17 04:36:00,
2013-12-16 22:41:00,18.9,-67.0,30.05,West,270,7.4,8.1,1,0.00,,OVC,0.00,WeatherDisplay:10.37,2013-12-17 04:41:00,
2013-12-16 22:46:00,18.5,-67.2,30.05,West,270,8.5,8.5,1,0.00,,OVC,0.00,WeatherDisplay:10.37,2013-12-17 04:46:00,
2013-12-16 22:51:00,18.3,-67.3,30.04,West,270,7.6,9.2,1,0.00,,OVC,0.00,WeatherDisplay:10.37,2013-12-17 04:51:00,
2013-12-16 22:56:00,18.0,-67.6,30.04,West,270,7.6,8.1,1,0.00,,OVC,0.00,WeatherDisplay:10.37,2013-12-17 04:56:00,
2013-12-16 23:01:00,17.8,-67.7,30.04,West,270,7.1,8.1,1,0.00,,OVC,0.00,WeatherDisplay:10.37,2013-12-17 05:01:00,
2013-12-16 23:02:00,17.6,-67.8,30.04,West,270,6.4,6.9,1,0.00,,OVC,0.00,WeatherDisplay:10.37,2013-12-17 05:02:00,
2013-12-16 23:07:00,17.6,-67.8,30.05,West,270,6.4,8.1,1,0.00,,OVC,0.00,WeatherDisplay:10.37,2013-12-17 05:07:00,
2013-12-16 23:12:00,17.4,-67.9,30.05,West,270,6.7,8.1,1,0.00,,OVC,0.00,WeatherDisplay:10.37,2013-12-17 05:12:00,
2013-12-16 23:17:00,17.4,-67.9,30.05,West,270,7.6,8.1,1,0.00,,OVC,0.00,WeatherDisplay:10.37,2013-12-17 05:17:00,
2013-12-16 23:22:00,17.4,-67.9,30.05,West,270,8.5,8.5,1,0.00,,OVC,0.00,WeatherDisplay:10.37,2013-12-17 05:22:00,
2013-12-16 23:27:00,17.4,-67.9,30.05,West,270,8.5,8.5,1,0.00,,OVC,0.00,WeatherDisplay:10.37,2013-12-17 05:27:00,
2013-12-16 23:32:00,17.2,-68.0,30.04,West,270,7.8,8.1,1,0.00,,OVC,0.00,WeatherDisplay:10.37,2013-12-17 05:32:00,
2013-12-16 23:37:00,17.1,-68.1,30.04,West,270,6.9,8.1,1,0.00,,OVC,0.00,WeatherDisplay:10.37,2013-12-17 05:37:00,
2013-12-16 23:42:00,16.9,-68.2,30.04,West,270,6.2,6.9,1,0.00,,OVC,0.00,WeatherDisplay:10.37,2013-12-17 05:42:00,
2013-12-16 23:47:00,16.5,-68.5,30.04,West,270,6.2,6.9,1,0.00,,OVC,0.00,WeatherDisplay:10.37,2013-12-17 05:47:00,
2013-12-16 23:52:00,16.2,-68.7,30.04,West,270,6.0,6.0,1,0.00,,OVC,0.00,WeatherDisplay:10.37,2013-12-17 05:52:00,
2013-12-16 23:57:00,16.2,-68.7,30.04,West,270,5.6,5.8,1,0.00,,OVC,0.00,WeatherDisplay:10.37,2013-12-17 05:57:00,